sensor_id;sensor_type;location;lat;lon;timestamp;pressure;altitude;pressure_sealevel;temperature;humidity
3082;BME280;1551;51.046;7.010;2023-02-13T00:01:56;103027.50;;;10.56;nan
3082;BME280;1551;51.046;7.010;2023-02-13T00:04:45;103031.16;;;10.64;nan
3082;BME280;1551;51.046;7.010;2023-02-13T00:07:34;103022.47;;;10.59;nan
3082;BME280;1551;51.046;7.010;2023-02-13T00:10:23;103024.03;;;10.54;nan
3082;BME280;1551;51.046;7.010;2023-02-13T00:13:12;103019.88;;;10.57;nan
3082;BME280;1551;51.046;7.010;2023-02-13T00:16:03;103020.56;;;10.52;nan
3082;BME280;1551;51.046;7.010;2023-02-13T00:18:52;103018.81;;;10.51;nan
3082;BME280;1551;51.046;7.010;2023-02-13T00:21:41;103002.53;;;10.47;nan
3082;BME280;1551;51.046;7.010;2023-02-13T00:24:30;103013.78;;;10.54;nan
3082;BME280;1551;51.046;7.010;2023-02-13T00:27:19;103011.31;;;10.57;nan
3082;BME280;1551;51.046;7.010;2023-02-13T00:30:08;103008.00;;;10.59;nan
3082;BME280;1551;51.046;7.010;2023-02-13T00:32:57;102998.47;;;10.55;nan
3082;BME280;1551;51.046;7.010;2023-02-13T00:35:47;102999.34;;;10.56;nan
3082;BME280;1551;51.046;7.010;2023-02-13T00:38:37;103001.13;;;10.58;nan
3082;BME280;1551;51.046;7.010;2023-02-13T00:41:26;102999.44;;;10.59;nan
3082;BME280;1551;51.046;7.010;2023-02-13T00:44:16;102994.22;;;10.56;nan
3082;BME280;1551;51.046;7.010;2023-02-13T00:47:05;103001.00;;;10.54;nan
3082;BME280;1551;51.046;7.010;2023-02-13T00:49:54;102985.41;;;10.46;nan
3082;BME280;1551;51.046;7.010;2023-02-13T00:52:45;102989.75;;;10.49;nan
3082;BME280;1551;51.046;7.010;2023-02-13T00:55:35;102983.75;;;10.48;nan
3082;BME280;1551;51.046;7.010;2023-02-13T00:58:24;102986.03;;;10.38;nan
3082;BME280;1551;51.046;7.010;2023-02-13T01:01:13;102991.19;;;10.39;nan
3082;BME280;1551;51.046;7.010;2023-02-13T01:04:02;102987.16;;;10.47;nan
3082;BME280;1551;51.046;7.010;2023-02-13T01:06:51;102988.09;;;10.51;nan
3082;BME280;1551;51.046;7.010;2023-02-13T01:09:40;102987.81;;;10.40;nan
3082;BME280;1551;51.046;7.010;2023-02-13T01:12:29;102990.28;;;10.37;nan
3082;BME280;1551;51.046;7.010;2023-02-13T01:15:18;102989.59;;;10.43;nan
3082;BME280;1551;51.046;7.010;2023-02-13T01:18:08;102988.69;;;10.41;nan
3082;BME280;1551;51.046;7.010;2023-02-13T01:21:02;102992.97;;;10.42;nan
3082;BME280;1551;51.046;7.010;2023-02-13T01:23:52;102986.91;;;10.38;nan
3082;BME280;1551;51.046;7.010;2023-02-13T01:26:42;102985.25;;;10.40;nan
3082;BME280;1551;51.046;7.010;2023-02-13T01:29:31;102986.81;;;10.35;nan
3082;BME280;1551;51.046;7.010;2023-02-13T01:32:21;102978.25;;;10.33;nan
3082;BME280;1551;51.046;7.010;2023-02-13T01:35:11;102977.13;;;10.23;nan
3082;BME280;1551;51.046;7.010;2023-02-13T01:38:01;102985.59;;;10.22;nan
3082;BME280;1551;51.046;7.010;2023-02-13T01:40:52;102977.25;;;10.28;nan
3082;BME280;1551;51.046;7.010;2023-02-13T01:43:56;102981.25;;;10.20;nan
3082;BME280;1551;51.046;7.010;2023-02-13T01:46:45;102980.56;;;10.24;nan
3082;BME280;1551;51.046;7.010;2023-02-13T01:49:34;102974.72;;;10.29;nan
3082;BME280;1551;51.046;7.010;2023-02-13T01:52:24;102978.78;;;10.21;nan
3082;BME280;1551;51.046;7.010;2023-02-13T01:55:13;102976.38;;;10.27;nan
3082;BME280;1551;51.046;7.010;2023-02-13T01:58:07;102973.03;;;10.30;nan
3082;BME280;1551;51.046;7.010;2023-02-13T02:00:58;102963.31;;;10.18;nan
3082;BME280;1551;51.046;7.010;2023-02-13T02:04:03;102974.78;;;10.31;nan
3082;BME280;1551;51.046;7.010;2023-02-13T02:06:57;102979.03;;;10.30;nan
3082;BME280;1551;51.046;7.010;2023-02-13T02:09:54;102977.34;;;10.31;nan
3082;BME280;1551;51.046;7.010;2023-02-13T02:12:49;102985.06;;;10.34;nan
3082;BME280;1551;51.046;7.010;2023-02-13T02:15:41;102975.69;;;10.33;nan
3082;BME280;1551;51.046;7.010;2023-02-13T02:18:31;102977.25;;;10.28;nan
3082;BME280;1551;51.046;7.010;2023-02-13T02:21:51;102979.78;;;10.26;nan
3082;BME280;1551;51.046;7.010;2023-02-13T02:25:12;102979.81;;;10.29;nan
3082;BME280;1551;51.046;7.010;2023-02-13T02:41:12;102976.03;;;10.15;nan
3082;BME280;1551;51.046;7.010;2023-02-13T02:47:58;102979.91;;;10.03;nan
3082;BME280;1551;51.046;7.010;2023-02-13T02:51:30;102972.47;;;10.10;nan
3082;BME280;1551;51.046;7.010;2023-02-13T02:57:43;102980.22;;;10.13;nan
3082;BME280;1551;51.046;7.010;2023-02-13T03:00:54;102975.00;;;10.10;nan
3082;BME280;1551;51.046;7.010;2023-02-13T03:04:04;102976.00;;;10.14;nan
3082;BME280;1551;51.046;7.010;2023-02-13T03:07:15;102968.13;;;10.08;nan
3082;BME280;1551;51.046;7.010;2023-02-13T03:10:11;102966.28;;;10.04;nan
3082;BME280;1551;51.046;7.010;2023-02-13T03:13:41;102974.66;;;9.98;nan
3082;BME280;1551;51.046;7.010;2023-02-13T03:16:31;102970.31;;;9.96;nan
3082;BME280;1551;51.046;7.010;2023-02-13T03:23:39;102979.56;;;9.92;nan
3082;BME280;1551;51.046;7.010;2023-02-13T03:29:45;102975.44;;;9.96;nan
3082;BME280;1551;51.046;7.010;2023-02-13T03:33:07;102982.19;;;9.94;nan
3082;BME280;1551;51.046;7.010;2023-02-13T03:40:07;102972.50;;;9.84;nan
3082;BME280;1551;51.046;7.010;2023-02-13T03:43:07;102972.63;;;9.87;nan
3082;BME280;1551;51.046;7.010;2023-02-13T03:45:58;102978.66;;;9.90;nan
3082;BME280;1551;51.046;7.010;2023-02-13T03:48:50;102978.91;;;9.98;nan
3082;BME280;1551;51.046;7.010;2023-02-13T03:52:02;102974.47;;;9.92;nan
3082;BME280;1551;51.046;7.010;2023-02-13T03:55:06;102975.34;;;9.93;nan
3082;BME280;1551;51.046;7.010;2023-02-13T03:58:28;102979.44;;;9.88;nan
3082;BME280;1551;51.046;7.010;2023-02-13T04:01:39;102955.00;;;9.69;nan
3082;BME280;1551;51.046;7.010;2023-02-13T04:04:39;102971.34;;;9.73;nan
3082;BME280;1551;51.046;7.010;2023-02-13T04:07:31;102960.25;;;9.74;nan
3082;BME280;1551;51.046;7.010;2023-02-13T04:10:22;102968.47;;;9.92;nan
3082;BME280;1551;51.046;7.010;2023-02-13T04:13:23;102981.34;;;9.95;nan
3082;BME280;1551;51.046;7.010;2023-02-13T04:16:18;102975.56;;;10.00;nan
3082;BME280;1551;51.046;7.010;2023-02-13T04:19:10;102983.00;;;9.93;nan
3082;BME280;1551;51.046;7.010;2023-02-13T04:22:00;102983.81;;;9.92;nan
3082;BME280;1551;51.046;7.010;2023-02-13T04:24:50;102981.22;;;9.90;nan
3082;BME280;1551;51.046;7.010;2023-02-13T04:27:39;102982.13;;;9.92;nan
3082;BME280;1551;51.046;7.010;2023-02-13T04:30:28;102982.72;;;9.82;nan
3082;BME280;1551;51.046;7.010;2023-02-13T04:33:18;102983.38;;;9.77;nan
3082;BME280;1551;51.046;7.010;2023-02-13T04:36:07;102971.38;;;9.74;nan
3082;BME280;1551;51.046;7.010;2023-02-13T04:38:56;102979.31;;;9.83;nan
3082;BME280;1551;51.046;7.010;2023-02-13T04:41:45;102979.31;;;9.83;nan
3082;BME280;1551;51.046;7.010;2023-02-13T04:44:34;102979.22;;;9.80;nan
3082;BME280;1551;51.046;7.010;2023-02-13T04:47:23;102975.88;;;9.83;nan
3082;BME280;1551;51.046;7.010;2023-02-13T04:50:12;102972.41;;;9.81;nan
3082;BME280;1551;51.046;7.010;2023-02-13T04:53:01;102971.50;;;9.79;nan
3082;BME280;1551;51.046;7.010;2023-02-13T04:55:50;102963.69;;;9.74;nan
3082;BME280;1551;51.046;7.010;2023-02-13T04:58:40;102974.81;;;9.75;nan
3082;BME280;1551;51.046;7.010;2023-02-13T05:01:29;102969.59;;;9.72;nan
3082;BME280;1551;51.046;7.010;2023-02-13T05:04:18;102973.66;;;9.65;nan
3082;BME280;1551;51.046;7.010;2023-02-13T05:07:07;102976.22;;;9.65;nan
3082;BME280;1551;51.046;7.010;2023-02-13T05:09:56;102974.41;;;9.61;nan
3082;BME280;1551;51.046;7.010;2023-02-13T05:12:46;102968.34;;;9.59;nan
3082;BME280;1551;51.046;7.010;2023-02-13T05:15:35;102973.38;;;9.56;nan
3082;BME280;1551;51.046;7.010;2023-02-13T05:18:24;102963.81;;;9.50;nan
3082;BME280;1551;51.046;7.010;2023-02-13T05:21:13;102968.84;;;9.47;nan
3082;BME280;1551;51.046;7.010;2023-02-13T05:24:21;102968.84;;;9.47;nan
3082;BME280;1551;51.046;7.010;2023-02-13T05:27:10;102967.16;;;9.48;nan
3082;BME280;1551;51.046;7.010;2023-02-13T05:29:59;102972.16;;;9.45;nan
3082;BME280;1551;51.046;7.010;2023-02-13T05:32:48;102978.88;;;9.41;nan
3082;BME280;1551;51.046;7.010;2023-02-13T05:35:39;102980.44;;;9.38;nan
3082;BME280;1551;51.046;7.010;2023-02-13T05:38:28;102975.28;;;9.35;nan
3082;BME280;1551;51.046;7.010;2023-02-13T05:41:17;102972.44;;;9.26;nan
3082;BME280;1551;51.046;7.010;2023-02-13T05:44:07;102980.13;;;9.27;nan
3082;BME280;1551;51.046;7.010;2023-02-13T05:46:56;102981.78;;;9.25;nan
3082;BME280;1551;51.046;7.010;2023-02-13T05:49:45;102982.53;;;9.23;nan
3082;BME280;1551;51.046;7.010;2023-02-13T05:52:34;102985.09;;;9.23;nan
3082;BME280;1551;51.046;7.010;2023-02-13T05:55:23;102980.09;;;9.26;nan
3082;BME280;1551;51.046;7.010;2023-02-13T05:58:12;102979.16;;;9.24;nan
3082;BME280;1551;51.046;7.010;2023-02-13T06:01:02;102976.31;;;9.15;nan
3082;BME280;1551;51.046;7.010;2023-02-13T06:03:51;102966.63;;;9.05;nan
3082;BME280;1551;51.046;7.010;2023-02-13T06:06:40;102980.34;;;9.08;nan
3082;BME280;1551;51.046;7.010;2023-02-13T06:09:29;102976.84;;;9.05;nan
3082;BME280;1551;51.046;7.010;2023-02-13T06:12:18;102972.34;;;8.97;nan
3082;BME280;1551;51.046;7.010;2023-02-13T06:15:07;102974.94;;;8.99;nan
3082;BME280;1551;51.046;7.010;2023-02-13T06:17:56;102974.00;;;8.95;nan
3082;BME280;1551;51.046;7.010;2023-02-13T06:20:45;102969.56;;;8.91;nan
3082;BME280;1551;51.046;7.010;2023-02-13T06:23:34;102978.00;;;8.89;nan
3082;BME280;1551;51.046;7.010;2023-02-13T06:26:24;102976.97;;;8.84;nan
3082;BME280;1551;51.046;7.010;2023-02-13T06:29:12;102977.69;;;8.80;nan
3082;BME280;1551;51.046;7.010;2023-02-13T06:32:01;102975.00;;;8.75;nan
3082;BME280;1551;51.046;7.010;2023-02-13T06:34:50;102985.75;;;8.67;nan
3082;BME280;1551;51.046;7.010;2023-02-13T06:37:40;102987.13;;;8.57;nan
3082;BME280;1551;51.046;7.010;2023-02-13T06:40:30;102981.03;;;8.54;nan
3082;BME280;1551;51.046;7.010;2023-02-13T06:43:19;102980.78;;;8.46;nan
3082;BME280;1551;51.046;7.010;2023-02-13T06:46:08;102981.47;;;8.42;nan
3082;BME280;1551;51.046;7.010;2023-02-13T06:48:58;102981.44;;;8.41;nan
3082;BME280;1551;51.046;7.010;2023-02-13T06:51:46;102983.00;;;8.37;nan
3082;BME280;1551;51.046;7.010;2023-02-13T06:54:35;102977.97;;;8.39;nan
3082;BME280;1551;51.046;7.010;2023-02-13T06:57:24;102971.78;;;8.32;nan
3082;BME280;1551;51.046;7.010;2023-02-13T07:00:16;102982.91;;;8.34;nan
3082;BME280;1551;51.046;7.010;2023-02-13T07:03:06;102981.97;;;8.32;nan
3082;BME280;1551;51.046;7.010;2023-02-13T07:05:55;102978.69;;;8.35;nan
3082;BME280;1551;51.046;7.010;2023-02-13T07:08:44;102979.63;;;8.38;nan
3082;BME280;1551;51.046;7.010;2023-02-13T07:11:33;102983.06;;;8.39;nan
3082;BME280;1551;51.046;7.010;2023-02-13T07:14:22;102975.34;;;8.37;nan
3082;BME280;1551;51.046;7.010;2023-02-13T07:17:11;102983.00;;;8.37;nan
3082;BME280;1551;51.046;7.010;2023-02-13T07:20:00;102989.84;;;8.38;nan
3082;BME280;1551;51.046;7.010;2023-02-13T07:22:49;102985.66;;;8.40;nan
3082;BME280;1551;51.046;7.010;2023-02-13T07:25:38;102978.84;;;8.39;nan
3082;BME280;1551;51.046;7.010;2023-02-13T07:28:28;102987.34;;;8.40;nan
3082;BME280;1551;51.046;7.010;2023-02-13T07:31:17;102990.81;;;8.42;nan
3082;BME280;1551;51.046;7.010;2023-02-13T07:34:06;102979.84;;;8.44;nan
3082;BME280;1551;51.046;7.010;2023-02-13T07:36:55;102991.84;;;8.47;nan
3082;BME280;1551;51.046;7.010;2023-02-13T07:39:44;102985.06;;;8.47;nan
3082;BME280;1551;51.046;7.010;2023-02-13T07:42:33;102980.78;;;8.46;nan
3082;BME280;1551;51.046;7.010;2023-02-13T07:45:23;102993.88;;;8.55;nan
3082;BME280;1551;51.046;7.010;2023-02-13T07:48:12;102992.94;;;8.53;nan
3082;BME280;1551;51.046;7.010;2023-02-13T07:51:03;102993.75;;;8.52;nan
3082;BME280;1551;51.046;7.010;2023-02-13T07:53:52;102998.09;;;8.55;nan
3082;BME280;1551;51.046;7.010;2023-02-13T07:56:41;102989.84;;;8.62;nan
3082;BME280;1551;51.046;7.010;2023-02-13T07:59:30;102990.97;;;8.70;nan
3082;BME280;1551;51.046;7.010;2023-02-13T08:02:19;102989.41;;;8.73;nan
3082;BME280;1551;51.046;7.010;2023-02-13T08:05:08;102958.56;;;8.67;nan
3082;BME280;1551;51.046;7.010;2023-02-13T08:07:57;102990.22;;;8.97;nan
3082;BME280;1551;51.046;7.010;2023-02-13T08:10:46;102985.13;;;9.24;nan
3082;BME280;1551;51.046;7.010;2023-02-13T08:13:54;102994.63;;;9.55;nan
3082;BME280;1551;51.046;7.010;2023-02-13T08:16:43;102988.53;;;9.78;nan
3082;BME280;1551;51.046;7.010;2023-02-13T08:19:32;102989.56;;;10.11;nan
3082;BME280;1551;51.046;7.010;2023-02-13T08:22:21;102994.88;;;10.49;nan
3082;BME280;1551;51.046;7.010;2023-02-13T08:25:10;102989.44;;;10.69;nan
3082;BME280;1551;51.046;7.010;2023-02-13T08:28:00;102991.63;;;10.87;nan
3082;BME280;1551;51.046;7.010;2023-02-13T08:30:49;102994.84;;;11.13;nan
3082;BME280;1551;51.046;7.010;2023-02-13T08:33:38;102995.19;;;11.26;nan
3082;BME280;1551;51.046;7.010;2023-02-13T08:36:29;103004.22;;;11.46;nan
3082;BME280;1551;51.046;7.010;2023-02-13T08:39:18;103004.44;;;11.55;nan
3082;BME280;1551;51.046;7.010;2023-02-13T08:42:07;102996.06;;;11.62;nan
3082;BME280;1551;51.046;7.010;2023-02-13T08:44:56;103002.69;;;11.90;nan
3082;BME280;1551;51.046;7.010;2023-02-13T08:47:45;103008.13;;;12.05;nan
3082;BME280;1551;51.046;7.010;2023-02-13T08:50:34;102999.00;;;12.18;nan
3082;BME280;1551;51.046;7.010;2023-02-13T08:53:23;102995.16;;;12.41;nan
3082;BME280;1551;51.046;7.010;2023-02-13T08:56:12;102991.53;;;12.75;nan
3082;BME280;1551;51.046;7.010;2023-02-13T08:59:01;103001.03;;;12.79;nan
3082;BME280;1551;51.046;7.010;2023-02-13T09:01:50;103000.28;;;12.84;nan
3082;BME280;1551;51.046;7.010;2023-02-13T09:04:39;103000.44;;;12.95;nan
3082;BME280;1551;51.046;7.010;2023-02-13T09:07:28;102997.28;;;13.08;nan
3082;BME280;1551;51.046;7.010;2023-02-13T09:10:17;103007.81;;;13.22;nan
3082;BME280;1551;51.046;7.010;2023-02-13T09:13:06;102996.28;;;13.54;nan
3082;BME280;1551;51.046;7.010;2023-02-13T09:16:00;102997.59;;;13.83;nan
3082;BME280;1551;51.046;7.010;2023-02-13T09:18:50;102997.88;;;14.06;nan
3082;BME280;1551;51.046;7.010;2023-02-13T09:21:38;102980.50;;;13.91;nan
3082;BME280;1551;51.046;7.010;2023-02-13T09:24:28;102994.19;;;13.87;nan
3082;BME280;1551;51.046;7.010;2023-02-13T09:27:17;103000.59;;;14.19;nan
3082;BME280;1551;51.046;7.010;2023-02-13T09:30:08;102996.63;;;14.41;nan
3082;BME280;1551;51.046;7.010;2023-02-13T09:32:58;103000.34;;;14.69;nan
3082;BME280;1551;51.046;7.010;2023-02-13T09:35:47;102989.44;;;14.97;nan
3082;BME280;1551;51.046;7.010;2023-02-13T09:38:36;102998.13;;;15.08;nan
3082;BME280;1551;51.046;7.010;2023-02-13T09:41:28;102999.38;;;15.54;nan
3082;BME280;1551;51.046;7.010;2023-02-13T09:44:34;103001.94;;;15.55;nan
3082;BME280;1551;51.046;7.010;2023-02-13T09:47:36;102998.78;;;16.09;nan
3082;BME280;1551;51.046;7.010;2023-02-13T09:50:30;102994.72;;;16.81;nan
3082;BME280;1551;51.046;7.010;2023-02-13T09:53:23;103002.47;;;17.14;nan
3082;BME280;1551;51.046;7.010;2023-02-13T09:56:22;103003.31;;;17.67;nan
3082;BME280;1551;51.046;7.010;2023-02-13T10:06:01;103008.00;;;19.76;nan
3082;BME280;1551;51.046;7.010;2023-02-13T10:09:38;103001.63;;;19.19;nan
3082;BME280;1551;51.046;7.010;2023-02-13T10:16:08;103003.59;;;20.51;nan
3082;BME280;1551;51.046;7.010;2023-02-13T10:19:03;103008.63;;;20.64;nan
3082;BME280;1551;51.046;7.010;2023-02-13T10:21:58;102995.34;;;20.82;nan
3082;BME280;1551;51.046;7.010;2023-02-13T10:24:52;103001.41;;;21.36;nan
3082;BME280;1551;51.046;7.010;2023-02-13T10:27:46;102992.31;;;21.09;nan
3082;BME280;1551;51.046;7.010;2023-02-13T10:31:02;103000.56;;;21.79;nan
3082;BME280;1551;51.046;7.010;2023-02-13T10:33:56;102998.50;;;22.36;nan
3082;BME280;1551;51.046;7.010;2023-02-13T10:36:47;102996.22;;;22.61;nan
3082;BME280;1551;51.046;7.010;2023-02-13T10:39:36;102998.78;;;22.63;nan
3082;BME280;1551;51.046;7.010;2023-02-13T10:42:43;102996.91;;;23.04;nan
3082;BME280;1551;51.046;7.010;2023-02-13T10:46:13;103007.47;;;23.34;nan
3082;BME280;1551;51.046;7.010;2023-02-13T10:49:19;103004.56;;;23.46;nan
3082;BME280;1551;51.046;7.010;2023-02-13T10:52:39;103000.09;;;23.49;nan
3082;BME280;1551;51.046;7.010;2023-02-13T11:02:21;102985.59;;;23.70;nan
3082;BME280;1551;51.046;7.010;2023-02-13T11:05:20;102990.28;;;24.19;nan
3082;BME280;1551;51.046;7.010;2023-02-13T11:08:17;102984.25;;;24.98;nan
3082;BME280;1551;51.046;7.010;2023-02-13T11:11:27;102979.09;;;24.95;nan
3082;BME280;1551;51.046;7.010;2023-02-13T11:14:19;102975.22;;;25.79;nan
3082;BME280;1551;51.046;7.010;2023-02-13T11:17:16;102971.31;;;26.36;nan
3082;BME280;1551;51.046;7.010;2023-02-13T11:29:26;102954.13;;;27.12;nan
3082;BME280;1551;51.046;7.010;2023-02-13T11:35:37;102953.13;;;27.15;nan
3082;BME280;1551;51.046;7.010;2023-02-13T11:38:26;102949.94;;;27.27;nan
3082;BME280;1551;51.046;7.010;2023-02-13T11:41:16;102942.47;;;28.14;nan
3082;BME280;1551;51.046;7.010;2023-02-13T11:44:20;102944.41;;;28.28;nan
3082;BME280;1551;51.046;7.010;2023-02-13T11:47:10;102933.50;;;28.35;nan
3082;BME280;1551;51.046;7.010;2023-02-13T11:50:03;102928.88;;;28.76;nan
3082;BME280;1551;51.046;7.010;2023-02-13T11:53:02;102928.63;;;28.98;nan
3082;BME280;1551;51.046;7.010;2023-02-13T11:56:08;102923.78;;;29.06;nan
3082;BME280;1551;51.046;7.010;2023-02-13T11:59:01;102921.25;;;28.70;nan
3082;BME280;1551;51.046;7.010;2023-02-13T12:02:29;102921.25;;;28.70;nan
3082;BME280;1551;51.046;7.010;2023-02-13T12:05:21;102915.50;;;28.96;nan
3082;BME280;1551;51.046;7.010;2023-02-13T12:08:11;102916.41;;;29.78;nan
3082;BME280;1551;51.046;7.010;2023-02-13T12:11:02;102905.28;;;30.34;nan
3082;BME280;1551;51.046;7.010;2023-02-13T12:13:52;102905.06;;;29.76;nan
3082;BME280;1551;51.046;7.010;2023-02-13T12:16:48;102904.09;;;29.61;nan
3082;BME280;1551;51.046;7.010;2023-02-13T12:19:41;102905.41;;;29.85;nan
3082;BME280;1551;51.046;7.010;2023-02-13T12:25:51;102898.88;;;30.68;nan
3082;BME280;1551;51.046;7.010;2023-02-13T12:38:19;102890.41;;;32.29;nan
3082;BME280;1551;51.046;7.010;2023-02-13T12:41:19;102893.94;;;32.94;nan
3082;BME280;1551;51.046;7.010;2023-02-13T12:47:07;102885.13;;;32.29;nan
3082;BME280;1551;51.046;7.010;2023-02-13T12:53:25;102882.13;;;32.60;nan
3082;BME280;1551;51.046;7.010;2023-02-13T12:56:37;102873.53;;;32.94;nan
3082;BME280;1551;51.046;7.010;2023-02-13T13:02:43;102863.94;;;32.41;nan
3082;BME280;1551;51.046;7.010;2023-02-13T13:05:59;102859.63;;;32.78;nan
3082;BME280;1551;51.046;7.010;2023-02-13T13:11:55;102858.09;;;30.86;nan
3082;BME280;1551;51.046;7.010;2023-02-13T13:18:14;102833.97;;;25.69;nan
3082;BME280;1551;51.046;7.010;2023-02-13T13:27:38;102833.34;;;25.84;nan
3082;BME280;1551;51.046;7.010;2023-02-13T13:30:32;102825.84;;;28.79;nan
3082;BME280;1551;51.046;7.010;2023-02-13T13:33:24;102844.34;;;30.95;nan
3082;BME280;1551;51.046;7.010;2023-02-13T13:36:35;102819.16;;;31.30;nan
3082;BME280;1551;51.046;7.010;2023-02-13T13:39:57;102832.06;;;30.36;nan
3082;BME280;1551;51.046;7.010;2023-02-13T13:45:56;102839.59;;;31.00;nan
3082;BME280;1551;51.046;7.010;2023-02-13T13:48:59;102827.28;;;31.55;nan
3082;BME280;1551;51.046;7.010;2023-02-13T13:52:18;102827.97;;;31.16;nan
3082;BME280;1551;51.046;7.010;2023-02-13T13:55:57;102821.56;;;32.02;nan
3082;BME280;1551;51.046;7.010;2023-02-13T13:58:46;102825.25;;;32.64;nan
3082;BME280;1551;51.046;7.010;2023-02-13T14:01:37;102815.75;;;33.36;nan
3082;BME280;1551;51.046;7.010;2023-02-13T14:07:23;102809.63;;;33.59;nan
3082;BME280;1551;51.046;7.010;2023-02-13T14:13:28;102808.97;;;33.32;nan
3082;BME280;1551;51.046;7.010;2023-02-13T14:16:41;102809.44;;;33.37;nan
3082;BME280;1551;51.046;7.010;2023-02-13T14:19:36;102807.75;;;32.74;nan
3082;BME280;1551;51.046;7.010;2023-02-13T14:22:35;102802.63;;;32.46;nan
3082;BME280;1551;51.046;7.010;2023-02-13T14:25:27;102803.31;;;31.98;nan
3082;BME280;1551;51.046;7.010;2023-02-13T14:28:25;102800.84;;;32.72;nan
3082;BME280;1551;51.046;7.010;2023-02-13T14:31:29;102800.50;;;33.14;nan
3082;BME280;1551;51.046;7.010;2023-02-13T14:34:29;102806.25;;;32.83;nan
3082;BME280;1551;51.046;7.010;2023-02-13T14:37:52;102808.81;;;32.84;nan
3082;BME280;1551;51.046;7.010;2023-02-13T14:40:48;102807.63;;;33.01;nan
3082;BME280;1551;51.046;7.010;2023-02-13T14:43:50;102797.00;;;33.01;nan
3082;BME280;1551;51.046;7.010;2023-02-13T14:46:40;102795.41;;;33.11;nan
3082;BME280;1551;51.046;7.010;2023-02-13T14:49:31;102802.06;;;33.29;nan
3082;BME280;1551;51.046;7.010;2023-02-13T14:52:26;102789.78;;;32.90;nan
3082;BME280;1551;51.046;7.010;2023-02-13T14:55:21;102790.00;;;32.87;nan
3082;BME280;1551;51.046;7.010;2023-02-13T14:58:31;102790.16;;;32.61;nan
3082;BME280;1551;51.046;7.010;2023-02-13T15:01:31;102796.59;;;33.07;nan
3082;BME280;1551;51.046;7.010;2023-02-13T15:04:34;102793.13;;;33.30;nan
3082;BME280;1551;51.046;7.010;2023-02-13T15:07:36;102794.69;;;32.71;nan
3082;BME280;1551;51.046;7.010;2023-02-13T15:13:30;102778.28;;;31.62;nan
3082;BME280;1551;51.046;7.010;2023-02-13T15:16:21;102766.75;;;31.49;nan
3082;BME280;1551;51.046;7.010;2023-02-13T15:19:15;102778.81;;;31.67;nan
3082;BME280;1551;51.046;7.010;2023-02-13T15:22:05;102775.16;;;31.15;nan
3082;BME280;1551;51.046;7.010;2023-02-13T15:24:55;102783.22;;;30.99;nan
3082;BME280;1551;51.046;7.010;2023-02-13T15:27:44;102781.19;;;30.46;nan
3082;BME280;1551;51.046;7.010;2023-02-13T15:30:35;102770.16;;;30.82;nan
3082;BME280;1551;51.046;7.010;2023-02-13T15:33:28;102762.13;;;29.82;nan
3082;BME280;1551;51.046;7.010;2023-02-13T15:36:22;102767.91;;;29.88;nan
3082;BME280;1551;51.046;7.010;2023-02-13T15:39:23;102772.75;;;29.96;nan
3082;BME280;1551;51.046;7.010;2023-02-13T15:42:12;102771.50;;;29.41;nan
3082;BME280;1551;51.046;7.010;2023-02-13T15:45:01;102760.44;;;29.34;nan
3082;BME280;1551;51.046;7.010;2023-02-13T15:47:50;102768.19;;;29.21;nan
3082;BME280;1551;51.046;7.010;2023-02-13T15:50:41;102770.13;;;29.02;nan
3082;BME280;1551;51.046;7.010;2023-02-13T15:53:30;102768.00;;;28.43;nan
3082;BME280;1551;51.046;7.010;2023-02-13T15:56:19;102759.41;;;27.70;nan
3082;BME280;1551;51.046;7.010;2023-02-13T15:59:08;102761.34;;;27.29;nan
3082;BME280;1551;51.046;7.010;2023-02-13T16:01:59;102757.03;;;26.91;nan
3082;BME280;1551;51.046;7.010;2023-02-13T16:04:51;102761.44;;;26.50;nan
3082;BME280;1551;51.046;7.010;2023-02-13T16:07:49;102726.00;;;25.78;nan
3082;BME280;1551;51.046;7.010;2023-02-13T16:10:39;102756.66;;;25.33;nan
3082;BME280;1551;51.046;7.010;2023-02-13T16:13:28;102746.06;;;23.63;nan
3082;BME280;1551;51.046;7.010;2023-02-13T16:16:17;102749.44;;;22.13;nan
3082;BME280;1551;51.046;7.010;2023-02-13T16:19:19;102753.91;;;20.90;nan
3082;BME280;1551;51.046;7.010;2023-02-13T16:28:02;102761.09;;;19.12;nan
3082;BME280;1551;51.046;7.010;2023-02-13T16:31:00;102761.53;;;18.73;nan
3082;BME280;1551;51.046;7.010;2023-02-13T16:33:49;102754.13;;;18.32;nan
3082;BME280;1551;51.046;7.010;2023-02-13T16:36:39;102751.88;;;17.93;nan
3082;BME280;1551;51.046;7.010;2023-02-13T16:39:30;102755.47;;;17.71;nan
3082;BME280;1551;51.046;7.010;2023-02-13T16:42:19;102751.28;;;17.47;nan
3082;BME280;1551;51.046;7.010;2023-02-13T16:45:23;102751.44;;;17.20;nan
3082;BME280;1551;51.046;7.010;2023-02-13T16:48:13;102748.06;;;17.01;nan
3082;BME280;1551;51.046;7.010;2023-02-13T16:51:03;102743.81;;;16.72;nan
3082;BME280;1551;51.046;7.010;2023-02-13T17:00:21;102762.78;;;16.39;nan
3082;BME280;1551;51.046;7.010;2023-02-13T17:03:14;102771.44;;;16.24;nan
3082;BME280;1551;51.046;7.010;2023-02-13T17:06:03;102774.00;;;16.14;nan
3082;BME280;1551;51.046;7.010;2023-02-13T17:08:52;102771.44;;;15.99;nan
3082;BME280;1551;51.046;7.010;2023-02-13T17:11:43;102776.56;;;15.83;nan
3082;BME280;1551;51.046;7.010;2023-02-13T17:14:37;102781.69;;;15.68;nan
3082;BME280;1551;51.046;7.010;2023-02-13T17:17:29;102778.22;;;15.51;nan
3082;BME280;1551;51.046;7.010;2023-02-13T17:20:25;102779.06;;;15.47;nan
3082;BME280;1551;51.046;7.010;2023-02-13T17:23:16;102792.72;;;15.36;nan
3082;BME280;1551;51.046;7.010;2023-02-13T17:26:06;102790.09;;;15.22;nan
3082;BME280;1551;51.046;7.010;2023-02-13T17:28:55;102794.34;;;15.08;nan
3082;BME280;1551;51.046;7.010;2023-02-13T17:31:44;102797.72;;;14.96;nan
3082;BME280;1551;51.046;7.010;2023-02-13T17:34:33;102798.50;;;14.83;nan
3082;BME280;1551;51.046;7.010;2023-02-13T17:37:24;102794.97;;;14.71;nan
3082;BME280;1551;51.046;7.010;2023-02-13T17:40:18;102797.47;;;14.57;nan
3082;BME280;1551;51.046;7.010;2023-02-13T17:43:10;102789.63;;;14.46;nan
3082;BME280;1551;51.046;7.010;2023-02-13T17:46:00;102797.31;;;14.37;nan
3082;BME280;1551;51.046;7.010;2023-02-13T17:48:49;102792.91;;;14.29;nan
3082;BME280;1551;51.046;7.010;2023-02-13T17:51:38;102795.41;;;14.21;nan
3082;BME280;1551;51.046;7.010;2023-02-13T17:54:28;102788.44;;;14.10;nan
3082;BME280;1551;51.046;7.010;2023-02-13T17:57:17;102785.72;;;13.93;nan
3082;BME280;1551;51.046;7.010;2023-02-13T18:00:07;102790.78;;;13.86;nan
3082;BME280;1551;51.046;7.010;2023-02-13T18:03:01;102791.50;;;13.71;nan
3082;BME280;1551;51.046;7.010;2023-02-13T18:05:50;102793.16;;;13.66;nan